Time;durP1;ratioP1;P1;durP2;ratioP2;P2;SDS_P1;SDS_P2;PMS_P1;PMS_P2;Temp;Humidity;BMP_temperature;BMP_pressure;BME280_temperature;BME280_humidity;BME280_pressure;Samples;Min_cycle;Max_cycle;Signal;HPM_P1;HPM_P2
2022/02/11 00:00:53;;;;;;;226.27;135.30;;;;;;;;;;4992384;28;20043;-77
2022/02/11 00:08:15;;;;;;;212.18;130.38;;;;;;;;;;5033104;28;20379;-77
2022/02/11 00:10:41;;;;;;;210.35;128.13;;;;;;;;;;5014983;28;20032;-76
2022/02/11 00:13:07;;;;;;;163.60;103.90;;;;;;;;;;5031201;28;20476;-76
2022/02/11 00:17:59;;;;;;;215.38;129.60;;;;;;;;;;5032944;28;20021;-77
2022/02/11 00:20:25;;;;;;;237.40;144.35;;;;;;;;;;5032794;28;20025;-76
2022/02/11 00:22:51;;;;;;;238.27;140.48;;;;;;;;;;5014997;28;20025;-76
2022/02/11 00:25:18;;;;;;;211.13;135.27;;;;;;;;;;5033344;28;20025;-77
2022/02/11 00:28:23;;;;;;;191.48;122.50;;;;;;;;;;5015036;28;20044;-76
2022/02/11 00:35:54;;;;;;;181.13;112.95;;;;;;;;;;5033307;28;20061;-78
2022/02/11 00:38:29;;;;;;;155.07;100.10;;;;;;;;;;5031471;28;20022;-75
2022/02/11 01:02:20;;;;;;;255.15;154.55;;;;;;;;;;5033228;28;20397;-76
2022/02/11 01:04:47;;;;;;;230.70;149.65;;;;;;;;;;5015393;28;20113;-77
2022/02/11 01:07:13;;;;;;;229.52;140.93;;;;;;;;;;5008034;28;20025;-79
2022/02/11 01:09:41;;;;;;;180.20;112.90;;;;;;;;;;5027080;28;20104;-76
2022/02/11 01:12:08;;;;;;;188.23;112.47;;;;;;;;;;5032748;28;20105;-76
2022/02/11 01:14:38;;;;;;;174.77;107.88;;;;;;;;;;5032645;28;20476;-76
2022/02/11 01:17:12;;;;;;;196.73;116.00;;;;;;;;;;5033051;28;20022;-76
2022/02/11 01:38:14;;;;;;;133.20;81.05;;;;;;;;;;5020747;28;20080;-76
2022/02/11 02:01:44;;;;;;;84.00;51.85;;;;;;;;;;5032045;28;20193;-76
2022/02/11 02:25:14;;;;;;;202.27;118.45;;;;;;;;;;5031560;28;20508;-76
2022/02/11 02:39:06;;;;;;;186.70;113.13;;;;;;;;;;5031475;28;20025;-76
2022/02/11 03:00:07;;;;;;;151.35;92.85;;;;;;;;;;5031178;28;20038;-76
2022/02/11 03:49:48;;;;;;;;;;;26.10;2201.60;;;;;;5022427;28;20064;-75
2022/02/11 03:55:48;;;;;;;88.43;56.20;;;26.10;2201.60;;;;;;5034610;28;20487;-75
2022/02/11 04:59:59;;;;;;;134.40;73.88;;;;;;;;;;5033026;28;20041;-77
2022/02/11 05:02:30;;;;;;;96.20;63.10;;;;;;;;;;5015391;28;20040;-75
2022/02/11 05:04:57;;;;;;;76.95;46.00;;;;;;;;;;5033328;28;20021;-75
2022/02/11 05:07:23;;;;;;;79.03;51.53;;;;;;;;;;5015550;28;20022;-76
2022/02/11 05:09:49;;;;;;;154.80;85.30;;;;;;;;;;5032659;28;20100;-76
2022/02/11 05:12:15;;;;;;;96.32;59.17;;;;;;;;;;5033113;28;20065;-76
2022/02/11 05:14:41;;;;;;;96.90;57.88;;;;;;;;;;5033098;28;20018;-76
2022/02/11 05:17:07;;;;;;;130.20;73.50;;;;;;;;;;5001133;28;20017;-75
2022/02/11 05:19:33;;;;;;;150.45;82.30;;;;;;;;;;5032521;28;20083;-76
2022/02/11 05:21:59;;;;;;;144.00;88.32;;;;;;;;;;5032893;28;20043;-76
2022/02/11 05:24:25;;;;;;;159.15;92.88;;;;;;;;;;5032591;28;20096;-76
2022/02/11 05:26:51;;;;;;;160.02;95.10;;;;;;;;;;5032439;28;20068;-76
2022/02/11 05:29:18;;;;;;;148.68;92.93;;;;;;;;;;5032724;28;20013;-76
2022/02/11 05:31:44;;;;;;;172.25;99.10;;;;;;;;;;5032013;28;20037;-76
2022/02/11 05:34:10;;;;;;;153.48;95.78;;;;;;;;;;5032664;28;20128;-76
2022/02/11 05:36:36;;;;;;;155.32;93.70;;;;;;;;;;5032440;28;20384;-76
2022/02/11 05:39:02;;;;;;;180.27;102.50;;;;;;;;;;5031636;28;20446;-76
2022/02/11 05:41:28;;;;;;;169.05;99.47;;;;;;;;;;5014785;28;20028;-76
2022/02/11 05:43:54;;;;;;;193.35;102.00;;;;;;;;;;5014054;28;20018;-76
2022/02/11 05:46:21;;;;;;;169.05;97.88;;;;;;;;;;5032466;28;20075;-77
2022/02/11 05:48:47;;;;;;;167.90;101.57;;;;;;;;;;5031778;28;20045;-77
2022/02/11 05:51:13;;;;;;;181.48;109.78;;;;;;;;;;5032229;28;20014;-78
2022/02/11 05:53:39;;;;;;;223.93;132.18;;;;;;;;;;5014599;28;20021;-77
2022/02/11 05:56:05;;;;;;;241.48;133.07;;;;;;;;;;5031753;28;20500;-76
2022/02/11 05:58:32;;;;;;;231.35;136.02;;;;;;;;;;5031920;28;20151;-76
2022/02/11 06:00:58;;;;;;;248.60;147.80;;;;;;;;;;5014256;28;20474;-76
2022/02/11 06:03:24;;;;;;;272.10;157.77;;;;;;;;;;5014204;28;20045;-77
2022/02/11 06:05:50;;;;;;;253.57;155.73;;;;;;;;;;5032471;28;20036;-76
2022/02/11 06:08:16;;;;;;;217.65;128.93;;;;;;;;;;5032178;28;20135;-77
2022/02/11 06:10:42;;;;;;;245.13;140.27;;;;;;;;;;5013541;28;20025;-77
2022/02/11 06:13:08;;;;;;;210.70;127.97;;;;;;;;;;5013898;28;20029;-77
2022/02/11 06:15:34;;;;;;;207.75;122.35;;;;;;;;;;5032078;28;20021;-76
2022/02/11 06:18:00;;;;;;;243.52;145.52;;;;;;;;;;5031471;28;20101;-76
2022/02/11 06:20:29;;;;;;;247.73;144.07;;;;;;;;;;5031997;28;20025;-76
2022/02/11 06:22:56;;;;;;;303.15;169.02;;;;;;;;;;5031628;28;20021;-76
2022/02/11 06:25:22;;;;;;;183.02;118.50;;;;;;;;;;5031256;28;20480;-79
2022/02/11 06:27:48;;;;;;;196.65;124.97;;;;;;;;;;5031688;28;20026;-76
2022/02/11 06:30:14;;;;;;;170.60;112.72;;;;;;;;;;5001412;28;20073;-77
2022/02/11 06:32:40;;;;;;;185.82;116.03;;;;;;;;;;5012778;28;20523;-77
2022/02/11 06:35:08;;;;;;;215.45;128.57;;;;;;;;;;5031704;28;20021;-77
2022/02/11 06:37:34;;;;;;;259.63;157.05;;;;;;;;;;5031121;28;20013;-77
2022/02/11 06:40:01;;;;;;;255.48;157.13;;;;;;;;;;5013888;28;20026;-76
2022/02/11 06:42:27;;;;;;;226.98;141.02;;;;;;;;;;5031072;28;20022;-77
2022/02/11 06:44:54;;;;;;;229.27;147.95;;;;;;;;;;5031603;28;20025;-78
2022/02/11 06:47:20;;;;;;;240.18;151.23;;;;;;;;;;5013331;28;20024;-76
2022/02/11 06:49:47;;;;;;;282.60;167.75;;;;;;;;;;5030713;28;20095;-77
2022/02/11 06:52:13;;;;;;;302.25;194.73;;;;;;;;;;5031068;28;20396;-77
2022/02/11 06:54:41;;;;;;;290.50;193.10;;;;;;;;;;5031200;28;20484;-77
2022/02/11 06:57:07;;;;;;;300.67;189.75;;;;;;;;;;5031386;28;20018;-77
2022/02/11 06:59:33;;;;;;;304.15;197.40;;;;;;;;;;5013104;28;20021;-77
2022/02/11 07:01:59;;;;;;;295.02;176.05;;;;;;;;;;5031352;28;20143;-76
2022/02/11 07:04:25;;;;;;;312.55;188.55;;;;;;;;;;5013389;28;20025;-76
2022/02/11 07:06:51;;;;;;;341.70;194.15;;;;;;;;;;5031003;28;20018;-76
2022/02/11 07:09:18;;;;;;;295.50;167.63;;;;;;;;;;5031253;28;20089;-76
2022/02/11 07:11:44;;;;;;;245.25;147.32;;;;;;;;;;5016973;28;20156;-77
2022/02/11 07:14:11;;;;;;;241.35;144.05;;;;;;;;;;5031631;28;20013;-77
2022/02/11 07:16:37;;;;;;;276.60;158.48;;;;;;;;;;5030869;28;20096;-76
2022/02/11 07:19:03;;;;;;;265.67;165.55;;;;;;;;;;5030898;28;20052;-76
2022/02/11 07:21:29;;;;;;;279.38;172.25;;;;;;;;;;5033304;28;20026;-77
2022/02/11 07:23:56;;;;;;;295.88;159.05;;;;;;;;;;5034939;28;20013;-76
2022/02/11 07:26:22;;;;;;;266.73;152.27;;;;;;;;;;5016955;28;20061;-76
2022/02/11 07:28:48;;;;;;;247.02;148.27;;;;;;;;;;5034516;28;20021;-76
2022/02/11 07:31:14;;;;;;;234.80;142.10;;;;;;;;;;5034941;28;20025;-76
2022/02/11 07:33:40;;;;;;;228.40;136.10;;;;;;;;;;5034713;28;20101;-76
2022/02/11 07:36:06;;;;;;;235.95;139.35;;;;;;;;;;5034672;28;20093;-76
2022/02/11 07:38:32;;;;;;;203.90;121.28;;;;;;;;;;5034372;28;20462;-76
2022/02/11 07:40:58;;;;;;;145.48;97.55;;;;;;;;;;5034706;28;20025;-76
2022/02/11 07:43:25;;;;;;;160.93;90.40;;;;;;;;;;5034834;28;20021;-76
2022/02/11 07:45:51;;;;;;;127.97;82.05;;;;;;;;;;5034541;28;20056;-76
2022/02/11 07:48:18;;;;;;;123.97;76.70;;;;;;;;;;5034721;28;20028;-77
2022/02/11 07:50:45;;;;;;;128.82;79.85;;;;;;;;;;5016423;28;20322;-77
2022/02/11 07:53:11;;;;;;;135.07;80.13;;;;;;;;;;5034337;28;20030;-77
2022/02/11 07:55:37;;;;;;;117.25;77.03;;;;;;;;;;5034213;28;20045;-77
2022/02/11 07:58:03;;;;;;;123.25;78.80;;;;;;;;;;5034538;28;20021;-77
2022/02/11 08:00:29;;;;;;;131.68;87.13;;;;;;;;;;5016410;28;20014;-76
2022/02/11 08:02:55;;;;;;;126.22;84.43;;;;;;;;;;5002327;28;20447;-75
2022/02/11 08:05:21;;;;;;;127.75;80.63;;;;;;;;;;5016398;28;20025;-77
2022/02/11 08:07:47;;;;;;;144.05;88.85;;;;;;;;;;5034159;28;20048;-77
2022/02/11 08:10:13;;;;;;;129.23;83.85;;;;;;;;;;5033838;28;20045;-76
2022/02/11 08:12:40;;;;;;;126.10;79.13;;;;;;;;;;5034226;28;20079;-78
2022/02/11 08:15:06;;;;;;;137.40;80.82;;;;;;;;;;5034407;28;20109;-77
2022/02/11 08:17:32;;;;;;;129.43;81.55;;;;;;;;;;5033871;28;20061;-77
2022/02/11 08:19:59;;;;;;;142.02;86.13;;;;;;;;;;5016205;28;20048;-77
2022/02/11 08:22:25;;;;;;;120.28;81.43;;;;;;;;;;5016316;28;20116;-77
2022/02/11 08:24:52;;;;;;;120.40;78.60;;;;;;;;;;5034152;28;20021;-76
2022/02/11 08:27:18;;;;;;;119.93;81.07;;;;;;;;;;5032795;28;20496;-75
2022/02/11 08:29:45;;;;;;;122.43;78.88;;;;;;;;;;5033319;28;20026;-77
2022/02/11 08:32:11;;;;;;;120.45;76.80;;;;;;;;;;5032885;28;20037;-76
2022/02/11 08:34:39;;;;;;;102.70;67.20;;;;;;;;;;5015581;28;20033;-77
2022/02/11 08:37:05;;;;;;;107.07;72.28;;;;;;;;;;5029996;28;20029;-77
2022/02/11 08:39:34;;;;;;;100.07;69.82;;;;;;;;;;5015439;28;20064;-76
2022/02/11 08:42:01;;;;;;;107.88;67.88;;;;;;;;;;5033191;28;20018;-75
2022/02/11 08:44:27;;;;;;;126.38;77.80;;;;;;;;;;5033675;28;20475;-76
2022/02/11 08:46:53;;;;;;;128.63;77.90;;;;;;;;;;5001831;28;20070;-78
2022/02/11 08:49:19;;;;;;;120.38;79.55;;;;;;;;;;5032282;28;20049;-78
2022/02/11 08:51:45;;;;;;;125.03;82.35;;;;;;;;;;5032015;28;20030;-77
2022/02/11 08:54:11;;;;;;;111.30;73.78;;;;;;;;;;5012045;28;20369;-77
2022/02/11 08:56:39;;;;;;;99.07;66.40;;;;;;;;;;5032810;28;20028;-78
2022/02/11 08:59:06;;;;;;;91.82;59.40;;;;;;;;;;5015005;28;20497;-77
2022/02/11 09:01:32;;;;;;;99.80;64.43;;;;;;;;;;5011438;28;20072;-77
2022/02/11 09:03:58;;;;;;;88.72;51.08;;;;;;;;;;5033273;28;20044;-78
2022/02/11 09:06:24;;;;;;;76.25;46.38;;;;;;;;;;5032834;28;20033;-79
2022/02/11 09:08:50;;;;;;;74.05;44.28;;;;;;;;;;5030993;28;20021;-77
2022/02/11 09:11:19;;;;;;;83.90;50.00;;;;;;;;;;5028559;28;20645;-80
2022/02/11 09:13:48;;;;;;;71.57;44.67;;;;;;;;;;5012873;28;20036;-80
2022/02/11 09:16:15;;;;;;;75.88;47.92;;;;;;;;;;5031706;28;20504;-78
2022/02/11 09:18:41;;;;;;;61.33;43.03;;;;;;;;;;5014313;28;20022;-79
2022/02/11 09:21:07;;;;;;;78.22;45.00;;;;;;;;;;5012765;28;20480;-79
2022/02/11 09:23:34;;;;;;;132.40;50.22;;;;;;;;;;5030705;28;20045;-80
2022/02/11 09:26:00;;;;;;;64.68;38.28;;;;;;;;;;5033202;28;20025;-77
2022/02/11 09:28:27;;;;;;;93.82;45.00;;;;;;;;;;4998125;28;20029;-80
2022/02/11 09:30:53;;;;;;;59.05;39.38;;;;;;;;;;5031277;28;20143;-79
2022/02/11 09:33:22;;;;;;;66.18;38.88;;;;;;;;;;5031253;28;20038;-78
2022/02/11 09:35:49;;;;;;;88.05;44.42;;;;;;;;;;5029819;28;20132;-78
2022/02/11 09:38:16;;;;;;;57.08;37.40;;;;;;;;;;5013537;28;20135;-78
2022/02/11 09:40:46;;;;;;;56.33;41.42;;;;;;;;;;5030188;28;20092;-80
2022/02/11 09:43:12;;;;;;;54.28;36.05;;;;;;;;;;5007487;28;20026;-79
2022/02/11 09:45:41;;;;;;;64.78;35.90;;;;;;;;;;5011765;28;20481;-80
2022/02/11 09:48:08;;;;;;;70.78;39.42;;;;;;;;;;5013819;28;20025;-76
2022/02/11 09:50:34;;;;;;;66.95;40.45;;;;;;;;;;5031180;28;20116;-79
2022/02/11 09:53:00;;;;;;;56.47;36.13;;;;;;;;;;5031769;28;20037;-78
2022/02/11 09:55:34;;;;;;;50.58;33.38;;;;;;;;;;5030322;28;20045;-79
2022/02/11 09:58:03;;;;;;;55.20;37.25;;;;;;;;;;5012078;28;20036;-77
2022/02/11 10:00:29;;;;;;;53.92;33.38;;;;;;;;;;5013125;28;20063;-79
2022/02/11 10:02:57;;;;;;;56.88;38.50;;;;;;;;;;5029909;28;20025;-78
2022/02/11 10:05:27;;;;;;;41.65;27.30;;;;;;;;;;5031522;28;20030;-79
2022/02/11 10:07:53;;;;;;;49.80;33.70;;;;;;;;;;5031353;28;20115;-79
2022/02/11 10:10:38;;;;;;;61.83;32.13;;;;;;;;;;5029208;28;20132;-79
2022/02/11 10:13:08;;;;;;;40.83;25.70;;;;;;;;;;5029427;28;20495;-82
2022/02/11 10:15:38;;;;;;;52.85;27.52;;;;;;;;;;5031810;28;20025;-83
2022/02/11 10:18:04;;;;;;;47.90;25.27;;;;;;;;;;5032416;28;20013;-84
2022/02/11 10:20:34;;;;;;;34.88;25.63;;;;;;;;;;5014624;28;20022;-82
2022/02/11 10:23:40;;;;;;;38.63;24.92;;;;;;;;;;5031442;28;20104;-79
2022/02/11 10:26:08;;;;;;;35.97;22.80;;;;;;;;;;4970884;28;20030;-81
2022/02/11 10:28:35;;;;;;;42.58;24.92;;;;;;;;;;5027049;28;20033;-76
2022/02/11 10:31:02;;;;;;;35.40;20.20;;;;;;;;;;5034604;28;20018;-83
2022/02/11 10:33:28;;;;;;;41.40;28.92;;;;;;;;;;5031695;28;20033;-80
2022/02/11 10:35:56;;;;;;;36.38;23.98;;;;;;;;;;5013391;28;20014;-83
2022/02/11 10:38:29;;;;;;;48.95;32.88;;;;;;;;;;5031292;28;20033;-80
2022/02/11 10:41:00;;;;;;;43.05;26.60;;;;;;;;;;5025472;28;20483;-79
2022/02/11 10:43:29;;;;;;;50.90;26.75;;;;;;;;;;5013991;28;20036;-81
2022/02/11 10:46:01;;;;;;;41.60;25.60;;;;;;;;;;5031350;28;20019;-83
2022/02/11 10:48:28;;;;;;;42.05;24.00;;;;;;;;;;5031940;28;20024;-81
2022/02/11 10:50:55;;;;;;;42.40;24.13;;;358.70;1689.60;;;;;;5014982;28;20472;-82
2022/02/11 10:53:32;;;;;;;38.03;24.38;;;;;;;;;;5019027;28;20037;-79
2022/02/11 10:55:59;;;;;;;28.38;17.38;;;;;;;;;;5031504;28;20029;-80
2022/02/11 10:58:28;;;;;;;28.13;17.75;;;;;;;;;;5032395;28;20048;-83
2022/02/11 11:00:56;;;;;;;37.88;20.15;;;;;;;;;;5032659;28;20021;-79
2022/02/11 11:03:23;;;;;;;40.47;23.08;;;;;;;;;;5032413;28;20026;-81
2022/02/11 11:05:50;;;;;;;23.95;17.05;;;;;;;;;;5032163;28;20396;-82
2022/02/11 11:08:17;;;;;;;37.05;18.75;;;;;;;;;;5034293;28;20018;-82
2022/02/11 11:10:47;;;;;;;33.70;18.45;;;;;;;;;;5032511;28;20018;-81
2022/02/11 11:13:14;;;;;;;31.48;19.33;;;;;;;;;;5001607;28;20104;-84
2022/02/11 11:15:41;;;;;;;34.55;17.55;;;;;;;;;;5013917;28;20021;-82
2022/02/11 11:18:10;;;;;;;26.60;16.05;;;;;;;;;;5031656;28;20379;-78
2022/02/11 11:20:36;;;;;;;42.45;17.85;;;;;;;;;;5031702;28;20018;-82
2022/02/11 11:23:06;;;;;;;35.25;15.50;;;;;;;;;;5001179;28;20581;-78
2022/02/11 11:25:53;;;;;;;27.27;14.38;;;;;;;;;;5018393;28;20030;-80
2022/02/11 11:28:38;;;;;;;30.17;15.88;;;;;;;;;;5013168;28;20522;-76
2022/02/11 11:31:23;;;;;;;27.60;17.55;;;;;;;;;;5016982;28;20092;-76
2022/02/11 11:33:49;;;;;;;52.20;21.33;;;;;;;;;;5029573;28;20516;-77
2022/02/11 11:36:16;;;;;;;33.22;22.83;;;;;;;;;;5030558;28;20472;-77
2022/02/11 11:38:44;;;;;;;36.78;18.55;;;;;;;;;;5030888;28;20115;-78
2022/02/11 11:41:19;;;;;;;25.65;15.63;;;;;;;;;;5029771;28;20014;-76
2022/02/11 11:43:50;;;;;;;29.17;15.30;;;;;;;;;;5029438;28;20029;-79
2022/02/11 11:46:20;;;;;;;22.75;14.52;;;;;;;;;;5007681;28;20504;-80
2022/02/11 11:49:00;;;;;;;30.83;14.65;;;;;;;;;;5030889;28;20508;-80
2022/02/11 11:51:30;;;;;;;21.80;13.85;;;;;;;;;;5029042;28;20032;-79
2022/02/11 11:54:22;;;;;;;27.65;14.80;;;;;;;;;;5030335;28;20022;-80
2022/02/11 11:56:49;;;;;;;24.08;14.43;;;;;;;;;;5010595;28;20034;-82
2022/02/11 11:59:34;;;;;;;35.33;14.27;;;;;;;;;;5030650;28;20491;-79
2022/02/11 12:02:05;;;;;;;19.23;13.00;;;;;;;;;;5012722;28;20565;-78
2022/02/11 12:04:32;;;;;;;28.02;14.20;;;;;;;;;;5029796;28;20029;-79
2022/02/11 12:07:07;;;;;;;20.92;11.82;;;;;;;;;;5030517;28;20022;-80
2022/02/11 12:09:34;;;;;;;23.42;13.00;;;;;;;;;;5034470;28;20033;-84
2022/02/11 12:12:04;;;;;;;24.92;14.70;;;;;;;;;;5034268;28;20484;-82
2022/02/11 12:14:32;;;;;;;21.50;13.50;;;;;;;;;;5017055;28;20029;-79
2022/02/11 12:17:01;;;;;;;19.20;12.85;;;;;;;;;;5034533;28;21502;-80
2022/02/11 12:19:28;;;;;;;20.20;13.93;;;;;;;;;;5032104;28;20488;-79
2022/02/11 12:21:54;;;;;;;20.95;12.32;;;;;;;;;;5034730;28;20029;-79
2022/02/11 12:27:21;;;;;;;19.75;11.38;;;;;;;;;;5032909;28;20160;-79
2022/02/11 12:29:54;;;;;;;20.30;10.82;;;;;;;;;;5015108;28;20155;-81
2022/02/11 12:32:28;;;;;;;17.35;9.05;;;;;;;;;;5036668;28;20033;-79
2022/02/11 12:34:58;;;;;;;15.13;9.43;;;;;;;;;;5032229;28;20029;-79
2022/02/11 12:37:25;;;;;;;15.88;10.10;;;;;;;;;;5013005;28;20029;-75
2022/02/11 12:40:00;;;;;;;19.25;11.73;;;;;;;;;;5033223;28;20115;-76
2022/02/11 12:42:27;;;;;;;27.08;11.05;;;;;;;;;;5034119;28;20026;-83
2022/02/11 12:44:53;;;;;;;28.60;11.15;;;;;;;;;;5016195;28;20028;-81
2022/02/11 12:47:20;;;;;;;24.25;12.45;;;;;;;;;;5033403;28;20060;-78
2022/02/11 12:49:47;;;;;;;21.73;11.90;;;;;;;;;;5033583;28;20531;-80
2022/02/11 12:52:18;;;;;;;15.95;10.73;;;;;;;;;;5032379;28;20048;-81
2022/02/11 12:55:01;;;;;;;18.33;11.63;;;;;;;;;;4998165;28;20017;-78
2022/02/11 12:57:27;;;;;;;18.40;12.32;;;;;;;;;;5026245;28;20025;-77
2022/02/11 12:59:53;;;;;;;19.05;11.02;;;;;;;;;;5015823;28;20057;-80
2022/02/11 13:02:30;;;;;;;30.02;11.60;;;;;;;;;;5014662;28;20056;-80
2022/02/11 13:05:04;;;;;;;19.73;11.63;;;;;;;;;;5016797;28;20053;-78
2022/02/11 13:07:30;;;;;;;27.98;13.60;;;;;;;;;;5013270;28;20025;-78
2022/02/11 13:09:56;;;;;;;22.88;13.60;;;;;;;;;;4997261;28;20114;-81
2022/02/11 13:12:22;;;;;;;38.38;18.77;;;;;;;;;;5005820;28;20480;-83
2022/02/11 13:14:48;;;;;;;18.23;14.60;;;;;;;;;;5013699;28;20404;-81
2022/02/11 13:17:14;;;;;;;25.60;19.23;;;;;;;;;;5014532;28;20044;-80
2022/02/11 13:19:40;;;;;;;25.50;15.77;;;;;;;;;;5015812;28;20104;-80
2022/02/11 13:22:06;;;;;;;23.25;16.13;;;;;;;;;;5010126;28;20018;-78
2022/02/11 13:24:34;;;;;;;22.42;14.27;;;;;;;;;;5008574;28;20026;-78
2022/02/11 13:27:00;;;;;;;20.42;14.75;;;;;;;;;;5016287;28;20053;-81
2022/02/11 13:29:26;;;;;;;33.42;20.08;;;;;;;;;;5015895;28;20021;-82
2022/02/11 13:31:54;;;;;;;18.95;15.38;;;;;;;;;;5016445;28;20039;-80
2022/02/11 13:34:20;;;;;;;27.98;17.55;;;;;;;;;;5020846;28;20017;-80
2022/02/11 13:36:49;;;;;;;22.65;16.02;;;;;;;;;;5020205;28;20032;-80
2022/02/11 13:39:28;;;;;;;19.67;12.65;;;;;;;;;;5015692;28;20025;-82
2022/02/11 13:41:54;;;;;;;22.20;15.55;;;;;;;;;;5006252;28;20049;-80
2022/02/11 13:44:21;;;;;;;22.35;16.63;;;;;;;;;;5010158;28;20033;-81
2022/02/11 13:46:54;;;;;;;18.45;13.40;;;;;;;;;;5008102;28;20369;-81
2022/02/11 13:49:23;;;;;;;24.02;13.02;;;;;;;;;;5016252;28;20049;-80
2022/02/11 13:55:03;;;;;;;21.48;13.77;;;;;;;;;;5034563;28;20443;-80
2022/02/11 13:57:29;;;;;;;33.70;15.23;;;;;;;;;;5010795;28;20084;-82
2022/02/11 13:59:55;;;;;;;24.70;15.85;;;;;;;;;;5007027;28;20140;-81
2022/02/11 14:02:22;;;;;;;22.33;15.20;;;;;;;;;;5001890;28;20017;-82
2022/02/11 14:05:01;;;;;;;19.52;13.80;;;;;;;;;;5015772;28;20022;-79
2022/02/11 14:07:27;;;;;;;23.85;14.18;;;;;;;;;;5015391;28;20148;-79
2022/02/11 14:09:53;;;;;;;18.45;14.77;;;;;;;;;;5018859;28;20022;-82
2022/02/11 14:12:19;;;;;;;17.55;12.18;;;;;;;;;;5015399;28;20440;-80
2022/02/11 14:14:56;;;;;;;18.08;12.77;;;;;;;;;;5015255;28;20030;-79
2022/02/11 14:17:22;;;;;;;26.80;14.63;;;;;;;;;;5014279;28;20036;-78
2022/02/11 14:19:48;;;;;;;20.17;13.05;;;;;;;;;;5009301;28;20013;-79
2022/02/11 14:22:14;;;;;;;24.27;15.23;;;;;;;;;;5014819;28;20033;-78
2022/02/11 14:24:40;;;;;;;24.77;13.55;;;;;;;;;;5014782;28;20022;-79
2022/02/11 14:27:07;;;;;;;49.78;15.55;;;;;;;;;;5014565;28;20025;-78
2022/02/11 14:29:33;;;;;;;17.48;15.63;;;;;;;;;;5014745;28;20032;-77
2022/02/11 14:31:59;;;;;;;24.77;17.80;;;;;;;;;;5013150;28;20033;-78
2022/02/11 14:34:25;;;;;;;22.08;15.65;;;;;;;;;;5014847;28;20025;-79
2022/02/11 14:36:52;;;;;;;21.73;14.55;;;;;;;;;;5021836;28;20057;-78
2022/02/11 14:39:18;;;;;;;20.10;12.77;;;;;;;;;;5016803;28;20543;-78
2022/02/11 14:41:49;;;;;;;23.00;13.13;;;;;;;;;;5014871;28;20091;-78
2022/02/11 14:44:17;;;;;;;22.65;12.80;;;;;;;;;;5001575;28;20013;-80
2022/02/11 14:46:43;;;;;;;23.27;16.33;;;;;;;;;;5014999;28;20472;-81
2022/02/11 14:49:10;;;;;;;33.78;24.90;;;;;;;;;;5002857;28;20104;-77
2022/02/11 14:51:37;;;;;;;31.83;20.08;;;;;;;;;;5013201;28;20476;-76
2022/02/11 14:54:08;;;;;;;29.58;19.42;;;;;;;;;;5014976;28;20472;-79
2022/02/11 14:56:34;;;;;;;31.75;20.25;;;;;;;;;;5014367;28;20032;-78
2022/02/11 14:59:00;;;;;;;46.38;23.80;;;;;;;;;;5013213;28;20061;-79
2022/02/11 15:01:26;;;;;;;52.28;22.98;;;;;;;;;;5013832;28;20025;-80
2022/02/11 15:03:53;;;;;;;49.30;24.88;;;;;;;;;;5014177;28;20392;-79
2022/02/11 15:06:19;;;;;;;44.40;22.75;;;;;;;;;;5013958;28;20037;-78
2022/02/11 15:08:45;;;;;;;35.78;22.63;;;;;;;;;;5014014;28;20375;-79
2022/02/11 15:11:12;;;;;;;51.67;22.23;;;;;;;;;;5014008;28;20051;-78
2022/02/11 15:13:38;;;;;;;43.05;24.42;;;;;;;;;;5013814;28;20034;-81
2022/02/11 15:16:05;;;;;;;54.88;32.42;;;;;;;;;;5012205;28;20026;-78
2022/02/11 15:18:31;;;;;;;56.78;32.85;;;;;;;;;;5013743;28;20022;-79
2022/02/11 15:21:05;;;;;;;48.25;27.38;;;;;;;;;;5008255;28;20065;-78
2022/02/11 15:23:37;;;;;;;57.95;26.80;;;;;;;;;;5014155;28;20013;-79
2022/02/11 15:26:05;;;;;;;47.90;26.55;;;;;;;;;;5031066;28;20029;-78
2022/02/11 15:28:35;;;;;;;59.60;26.92;;;;;;;;;;4999824;28;20476;-77
2022/02/11 15:31:02;;;;;;;59.88;29.25;;;;;;;;;;5013538;28;20021;-78
2022/02/11 15:33:29;;;;;;;43.25;26.48;;;;;;;;;;5013276;28;20029;-77
2022/02/11 15:35:55;;;;;;;58.55;27.13;;;;;;;;;;5031633;28;20487;-77
2022/02/11 15:38:21;;;;;;;62.75;26.95;;;;;;;;;;5016994;28;20025;-79
2022/02/11 15:40:49;;;;;;;56.15;31.23;;;;;;;;;;5019542;28;20026;-78
2022/02/11 15:43:15;;;;;;;76.32;38.58;;;;;;;;;;5017165;28;20072;-77
2022/02/11 15:45:45;;;;;;;144.98;95.57;;;;;;;;;;5003456;28;20064;-77
2022/02/11 15:48:12;;;;;;;118.88;81.15;;;;;;;;;;5017293;28;20423;-78
2022/02/11 15:50:41;;;;;;;49.10;36.25;;;;;;;;;;5017348;28;20049;-80
2022/02/11 15:53:07;;;;;;;54.22;36.83;;;;;;;;;;5017786;28;20484;-77
2022/02/11 15:55:33;;;;;;;61.50;35.38;;;;;;;;;;5017431;28;20017;-80
2022/02/11 15:57:59;;;;;;;168.70;101.28;;;;;;;;;;5016796;28;20075;-76
2022/02/11 16:00:25;;;;;;;203.95;124.90;;;;;;;;;;5015632;28;20113;-78
2022/02/11 16:02:51;;;;;;;207.25;126.35;;;;;;;;;;5033386;28;20436;-78
2022/02/11 16:05:18;;;;;;;251.57;116.13;;;;;;;;;;5015449;28;20032;-78
2022/02/11 16:07:44;;;;;;;199.65;128.02;;;;;;;;;;5013242;28;20052;-80
2022/02/11 16:10:10;;;;;;;239.23;157.73;;;;;;;;;;5013894;28;20404;-77
2022/02/11 16:12:36;;;;;;;386.08;245.60;;;;;;;;;;5016196;28;20472;-80
2022/02/11 16:15:03;;;;;;;249.75;141.60;;;;;;;;;;5033730;28;20049;-80
2022/02/11 16:17:30;;;;;;;280.00;191.73;;;;;;;;;;5008443;28;20488;-79
2022/02/11 16:19:56;;;;;;;210.48;135.13;;;;;;;;;;5011641;28;20052;-77
2022/02/11 16:22:27;;;;;;;192.02;129.45;;;;;;;;;;5017734;28;20032;-78
2022/02/11 16:24:54;;;;;;;163.57;109.95;;;;;;;;;;5003397;28;20013;-80
2022/02/11 16:27:20;;;;;;;178.65;122.43;;;;;;;;;;5016820;28;20029;-76
2022/02/11 16:29:46;;;;;;;212.93;143.23;;;;;;;;;;5033842;28;20400;-80
2022/02/11 16:32:12;;;;;;;180.43;110.47;;;;;;;;;;5033764;28;20045;-79
2022/02/11 16:34:39;;;;;;;204.38;128.32;;;;;;;;;;5033727;28;20053;-79
2022/02/11 16:37:08;;;;;;;372.73;266.23;;;;;;;;;;5034137;28;20018;-79
2022/02/11 16:39:34;;;;;;;279.67;179.45;;;;;;;;;;5015034;28;20060;-79
2022/02/11 16:42:00;;;;;;;258.10;172.90;;;;;;;;;;5041611;28;20112;-80
2022/02/11 16:44:26;;;;;;;350.02;224.20;;;;;;;;;;5033482;28;20021;-79
2022/02/11 16:46:52;;;;;;;457.42;367.77;;;;;;;;;;5032216;28;20026;-79
2022/02/11 16:49:18;;;;;;;320.00;200.07;;;;;;;;;;5032463;28;20121;-80
2022/02/11 16:51:45;;;;;;;184.35;115.30;;;;;;;;;;5032220;28;20017;-79
2022/02/11 16:54:12;;;;;;;186.63;125.82;;;;;;;;;;5014895;28;20021;-80
2022/02/11 16:56:38;;;;;;;165.18;109.18;;;;;;;;;;5016588;28;20017;-79
2022/02/11 16:59:04;;;;;;;151.10;104.22;;;;;;;;;;5033690;28;20017;-80
2022/02/11 17:01:30;;;;;;;123.38;83.63;;;;;;;;;;5034079;28;20075;-80
2022/02/11 17:03:57;;;;;;;161.90;112.10;;;;;;;;;;5009496;28;20030;-78
2022/02/11 17:06:23;;;;;;;126.38;95.95;;;;;;;;;;5014864;28;20026;-78
2022/02/11 17:08:49;;;;;;;119.65;83.05;;;;;;;;;;5032824;28;20068;-79
2022/02/11 17:11:15;;;;;;;117.50;81.88;;;;;;;;;;5033527;28;20017;-78
2022/02/11 17:13:42;;;;;;;118.72;80.00;;;;;;;;;;5032539;28;20038;-78
2022/02/11 17:16:09;;;;;;;139.50;80.35;;;;;;;;;;5033331;28;20021;-80
2022/02/11 17:18:35;;;;;;;98.22;56.47;;;;;;;;;;5033077;28;20381;-80
2022/02/11 17:21:02;;;;;;;76.78;54.30;;;;;;;;;;5033166;28;20025;-81
2022/02/11 17:23:28;;;;;;;65.03;39.55;;;;;;;;;;5015814;28;20025;-79
2022/02/11 17:25:55;;;;;;;69.63;39.63;;;;;;;;;;5033334;28;20089;-78
2022/02/11 17:28:24;;;;;;;68.10;39.10;;;;;;;;;;5033271;28;20064;-78
2022/02/11 17:30:54;;;;;;;71.25;43.97;;;;;;;;;;5033211;28;20041;-79
2022/02/11 17:33:22;;;;;;;80.25;50.58;;;;;;;;;;5031783;28;20508;-79
2022/02/11 17:35:48;;;;;;;80.65;50.38;;;;;;;;;;5015279;28;20021;-80
2022/02/11 17:38:14;;;;;;;67.68;47.35;;;;;;;;;;5031512;28;20139;-78
2022/02/11 17:40:40;;;;;;;70.10;46.70;;;;;;;;;;5013651;28;20025;-79
2022/02/11 17:43:08;;;;;;;75.75;54.13;;;;;;;;;;5016477;28;20037;-79
2022/02/11 17:45:34;;;;;;;89.93;60.47;;;;;;;;;;5022427;28;20025;-80
2022/02/11 17:48:00;;;;;;;93.10;62.13;;;;;;;;;;5031051;28;20063;-80
2022/02/11 17:50:26;;;;;;;108.10;69.70;;;;;;;;;;5031407;28;20041;-79
2022/02/11 17:52:52;;;;;;;85.00;53.67;;;;;;;;;;5031501;28;20048;-80
2022/02/11 17:55:20;;;;;;;96.38;60.55;;;;;;;;;;5015444;28;20017;-80
2022/02/11 17:57:47;;;;;;;96.25;60.05;;;;;;;;;;5033127;28;20024;-78
2022/02/11 18:00:13;;;;;;;130.40;77.20;;;;;;;;;;5015490;28;20025;-79
2022/02/11 18:02:39;;;;;;;133.10;88.50;;;;;;;;;;5014426;28;20110;-79
2022/02/11 18:05:07;;;;;;;121.68;76.35;;;;;;;;;;5014127;28;20358;-78
2022/02/11 18:07:38;;;;;;;115.03;75.75;;;;;;;;;;5014342;28;20610;-78
2022/02/11 18:10:06;;;;;;;107.53;67.22;;;;;;;;;;5014689;28;20033;-77
2022/02/11 18:12:32;;;;;;;101.93;68.00;;;;;;;;;;5014164;28;20091;-78